Time;durP1;ratioP1;P1;durP2;ratioP2;P2;SDS_P1;SDS_P2;PMS_P1;PMS_P2;Temp;Humidity;BMP_temperature;BMP_pressure;BME280_temperature;BME280_humidity;BME280_pressure;Samples;Min_cycle;Max_cycle;Signal;HPM_P1;HPM_P2
2022/04/04 00:01:08;;;;;;;10.05;6.22;;;4.20;99.90;;;;;;5071142;28;20024;-74
2022/04/04 00:03:34;;;;;;;7.05;5.47;;;4.20;99.90;;;;;;5072273;28;20048;-73
2022/04/04 00:05:59;;;;;;;8.52;5.85;;;4.20;99.90;;;;;;5072416;28;20166;-74
2022/04/04 00:08:25;;;;;;;9.05;5.70;;;4.20;99.90;;;;;;5071038;28;20040;-73
2022/04/04 00:10:50;;;;;;;6.93;4.70;;;4.20;99.90;;;;;;5072353;28;20132;-73
2022/04/04 00:13:16;;;;;;;6.00;5.07;;;4.30;99.90;;;;;;5071844;28;20027;-73
2022/04/04 00:15:42;;;;;;;6.15;4.88;;;4.20;99.90;;;;;;5071427;28;20049;-73
2022/04/04 00:18:10;;;;;;;8.93;5.30;;;4.20;99.90;;;;;;5072014;28;20410;-73
2022/04/04 00:20:36;;;;;;;5.97;4.53;;;4.20;99.90;;;;;;5071677;28;20028;-73
2022/04/04 00:23:02;;;;;;;9.80;5.10;;;4.20;99.90;;;;;;5072257;28;20020;-72
2022/04/04 00:25:27;;;;;;;7.05;5.07;;;4.30;99.90;;;;;;5071854;28;20033;-73
2022/04/04 00:27:53;;;;;;;6.40;5.35;;;4.20;99.90;;;;;;5071334;28;20024;-73
2022/04/04 00:30:18;;;;;;;6.28;4.47;;;4.20;99.90;;;;;;5071477;28;20028;-75
2022/04/04 00:32:44;;;;;;;11.48;4.93;;;4.20;99.90;;;;;;5072282;28;20495;-74
2022/04/04 00:35:10;;;;;;;10.52;5.55;;;4.20;99.90;;;;;;5071047;28;20035;-74
2022/04/04 00:37:37;;;;;;;7.97;5.13;;;4.20;99.90;;;;;;5075459;28;20534;-74
2022/04/04 00:40:07;;;;;;;8.98;5.20;;;4.10;99.90;;;;;;5078578;28;20033;-74
2022/04/04 00:42:33;;;;;;;7.97;4.05;;;4.10;99.90;;;;;;5077283;28;20063;-72
2022/04/04 00:44:59;;;;;;;5.43;4.75;;;4.10;99.90;;;;;;5078909;28;20040;-73
2022/04/04 00:47:25;;;;;;;6.53;4.43;;;4.10;99.90;;;;;;5078418;28;20024;-74
2022/04/04 00:49:51;;;;;;;10.20;4.30;;;4.10;99.90;;;;;;5077905;28;20032;-74
2022/04/04 00:52:17;;;;;;;7.07;4.80;;;4.10;99.90;;;;;;5078267;28;20459;-74
2022/04/04 00:54:43;;;;;;;4.68;4.15;;;4.10;99.90;;;;;;5078398;28;20028;-72
2022/04/04 00:57:08;;;;;;;5.10;4.22;;;4.20;99.90;;;;;;5077357;28;20025;-75
2022/04/04 00:59:35;;;;;;;5.35;4.75;;;4.10;99.90;;;;;;5078610;28;20454;-72
2022/04/04 01:02:00;;;;;;;7.20;4.85;;;4.10;99.90;;;;;;5078384;28;20051;-72
2022/04/04 01:04:26;;;;;;;7.88;4.30;;;4.20;99.90;;;;;;5077557;28;20539;-75
2022/04/04 01:06:52;;;;;;;7.53;4.47;;;4.20;99.90;;;;;;5078409;28;20025;-73
2022/04/04 01:09:18;;;;;;;6.75;4.70;;;4.20;99.90;;;;;;5077610;28;20056;-73
2022/04/04 01:12:06;;;;;;;6.60;4.18;;;4.20;99.90;;;;;;5077583;28;20016;-72
2022/04/04 01:14:33;;;;;;;9.63;4.47;;;4.20;99.90;;;;;;5060310;28;20029;-73
2022/04/04 01:16:59;;;;;;;8.77;5.47;;;4.20;99.90;;;;;;5078530;28;20025;-75
2022/04/04 01:19:24;;;;;;;5.32;4.65;;;4.20;99.90;;;;;;5078859;28;20032;-74
2022/04/04 01:21:50;;;;;;;7.60;4.63;;;4.20;99.90;;;;;;5078319;28;20054;-73
2022/04/04 01:24:21;;;;;;;7.47;4.50;;;4.20;99.90;;;;;;5077186;28;20111;-73
2022/04/04 01:26:51;;;;;;;10.55;5.30;;;4.20;99.90;;;;;;5078480;28;20024;-73
2022/04/04 01:29:18;;;;;;;6.35;4.68;;;4.20;99.90;;;;;;5077799;28;20047;-73
2022/04/04 01:31:44;;;;;;;5.80;4.32;;;4.20;99.90;;;;;;5077517;28;20040;-73
2022/04/04 01:34:10;;;;;;;7.82;4.90;;;4.20;99.90;;;;;;5077868;28;20107;-74
2022/04/04 01:36:35;;;;;;;9.55;5.10;;;4.30;99.90;;;;;;5078607;28;20021;-73
2022/04/04 01:39:01;;;;;;;9.32;5.95;;;4.20;99.90;;;;;;5077237;28;20515;-72
2022/04/04 01:41:27;;;;;;;6.25;5.65;;;4.20;99.90;;;;;;5077864;28;20020;-73
2022/04/04 01:43:52;;;;;;;7.18;5.35;;;4.30;99.90;;;;;;5078114;28;20107;-74
2022/04/04 01:46:24;;;;;;;7.70;5.50;;;4.30;99.90;;;;;;5077399;28;20035;-74
2022/04/04 01:48:50;;;;;;;9.73;5.80;;;4.30;99.90;;;;;;5076592;28;20503;-72
2022/04/04 01:51:17;;;;;;;11.95;5.97;;;4.40;99.90;;;;;;5074641;28;20032;-74
2022/04/04 01:53:42;;;;;;;10.57;6.25;;;4.30;99.90;;;;;;5074825;28;20025;-73
2022/04/04 01:56:08;;;;;;;9.88;6.35;;;4.50;99.90;;;;;;5074811;28;20035;-73
2022/04/04 01:58:34;;;;;;;9.98;5.93;;;4.50;99.90;;;;;;5074699;28;20388;-73
2022/04/04 02:01:01;;;;;;;9.85;6.78;;;4.50;99.90;;;;;;5074352;28;20062;-74
2022/04/04 02:03:29;;;;;;;13.57;5.70;;;4.50;99.90;;;;;;5075354;28;20043;-73
2022/04/04 02:05:55;;;;;;;9.77;6.75;;;4.50;99.90;;;;;;5075420;28;20035;-74
2022/04/04 02:08:21;;;;;;;7.50;5.70;;;4.60;99.90;;;;;;5073585;28;20059;-73
2022/04/04 02:10:46;;;;;;;10.80;6.57;;;4.60;99.90;;;;;;5074542;28;20115;-73
2022/04/04 02:13:12;;;;;;;6.82;6.13;;;4.60;99.90;;;;;;5073555;28;20029;-73
2022/04/04 02:15:38;;;;;;;11.18;6.65;;;4.60;99.90;;;;;;5074515;28;20043;-73
2022/04/04 02:18:04;;;;;;;10.63;6.82;;;4.60;99.90;;;;;;5074424;28;20115;-73
2022/04/04 02:20:29;;;;;;;16.48;7.07;;;4.60;99.90;;;;;;5073266;28;20131;-73
2022/04/04 02:22:55;;;;;;;8.20;6.82;;;4.60;99.90;;;;;;5074769;28;20020;-74
2022/04/04 02:25:20;;;;;;;9.20;7.32;;;4.60;99.90;;;;;;5076249;28;20071;-74
2022/04/04 02:27:46;;;;;;;11.52;6.10;;;4.60;99.90;;;;;;5076211;28;20035;-74
2022/04/04 02:30:12;;;;;;;12.65;6.57;;;4.60;99.90;;;;;;5074084;28;20086;-74
2022/04/04 02:32:38;;;;;;;9.85;6.63;;;4.60;99.90;;;;;;5076855;28;20082;-74
2022/04/04 02:35:04;;;;;;;18.90;7.05;;;4.60;99.90;;;;;;5074823;28;20423;-75
2022/04/04 02:37:30;;;;;;;11.10;6.43;;;4.60;99.90;;;;;;5074887;28;20033;-75
2022/04/04 02:39:56;;;;;;;8.55;6.13;;;4.70;99.90;;;;;;5075243;28;20376;-75
2022/04/04 02:42:22;;;;;;;11.10;5.85;;;4.70;99.90;;;;;;5073964;28;20027;-75
2022/04/04 02:44:48;;;;;;;10.55;5.78;;;4.70;99.90;;;;;;5075407;28;20029;-74
2022/04/04 02:47:13;;;;;;;9.00;5.47;;;4.70;99.90;;;;;;5075379;28;20016;-74
2022/04/04 02:49:39;;;;;;;6.60;5.07;;;4.70;99.90;;;;;;5075986;28;20555;-74
2022/04/04 02:52:05;;;;;;;11.60;4.80;;;4.70;99.90;;;;;;5075022;28;20377;-75
2022/04/04 02:54:30;;;;;;;7.35;5.30;;;4.80;99.90;;;;;;5074635;28;20391;-74
2022/04/04 02:56:56;;;;;;;9.07;4.68;;;4.80;99.90;;;;;;5075282;28;20025;-75
2022/04/04 02:59:22;;;;;;;10.98;5.10;;;4.80;99.90;;;;;;5073718;28;20067;-75
2022/04/04 03:01:50;;;;;;;6.47;4.50;;;4.80;99.90;;;;;;5073966;28;20037;-74
2022/04/04 03:04:17;;;;;;;10.85;5.32;;;4.90;99.90;;;;;;5074860;28;20047;-75
2022/04/04 03:06:43;;;;;;;6.18;4.97;;;4.90;99.90;;;;;;5076132;28;20048;-74
2022/04/04 03:09:08;;;;;;;5.60;4.82;;;4.90;99.90;;;;;;5074026;28;20076;-74
2022/04/04 03:11:34;;;;;;;6.20;4.50;;;4.90;99.90;;;;;;5074450;28;20084;-75
2022/04/04 03:14:00;;;;;;;9.43;4.43;;;4.90;99.90;;;;;;5075117;28;20055;-74
2022/04/04 03:16:26;;;;;;;9.10;4.95;;;4.90;99.90;;;;;;5077384;28;20029;-75
2022/04/04 03:18:54;;;;;;;6.38;4.53;;;4.90;99.90;;;;;;5077607;28;20465;-75
2022/04/04 03:21:20;;;;;;;7.05;4.43;;;4.90;99.90;;;;;;5074638;28;20021;-74
2022/04/04 03:23:46;;;;;;;11.25;4.70;;;4.80;99.90;;;;;;5072784;28;20043;-74
2022/04/04 03:26:12;;;;;;;6.30;4.78;;;4.90;99.90;;;;;;5074753;28;20020;-74
2022/04/04 03:28:38;;;;;;;6.63;4.35;;;4.90;99.90;;;;;;5072911;28;20077;-74
2022/04/04 03:31:06;;;;;;;9.57;5.32;;;5.00;99.90;;;;;;5072198;28;20036;-73
2022/04/04 03:33:33;;;;;;;6.97;4.72;;;5.00;99.90;;;;;;5072661;28;20111;-73
2022/04/04 03:35:59;;;;;;;5.07;4.63;;;4.90;99.90;;;;;;5072838;28;20055;-74
2022/04/04 03:38:25;;;;;;;6.55;5.05;;;4.90;99.90;;;;;;5071940;28;20121;-73
2022/04/04 03:40:51;;;;;;;5.43;3.95;;;5.00;99.90;;;;;;5072845;28;20028;-74
2022/04/04 03:43:17;;;;;;;6.57;5.00;;;5.00;99.90;;;;;;5072414;28;20166;-72
2022/04/04 03:45:43;;;;;;;8.88;5.95;;;5.10;99.90;;;;;;5071904;28;20058;-74
2022/04/04 03:48:09;;;;;;;9.20;4.78;;;5.10;99.90;;;;;;5071945;28;20033;-74
2022/04/04 03:50:35;;;;;;;8.32;4.93;;;5.10;99.90;;;;;;5072622;28;20377;-72
2022/04/04 03:53:01;;;;;;;8.35;5.38;;;5.10;99.90;;;;;;5071930;28;20024;-72
2022/04/04 03:55:38;;;;;;;11.20;5.38;;;5.10;99.90;;;;;;5072619;28;20051;-73
2022/04/04 03:58:04;;;;;;;6.97;5.13;;;5.20;99.90;;;;;;5072644;28;20036;-73
2022/04/04 04:00:30;;;;;;;6.70;4.85;;;5.20;99.90;;;;;;5071375;28;20146;-73
2022/04/04 04:02:56;;;;;;;8.00;4.68;;;5.20;99.90;;;;;;5072468;28;20021;-72
2022/04/04 04:05:22;;;;;;;11.27;6.03;;;5.20;99.90;;;;;;5072102;28;20609;-73
2022/04/04 04:07:48;;;;;;;10.05;6.05;;;5.20;99.90;;;;;;5073110;28;20056;-74
2022/04/04 04:10:14;;;;;;;11.15;5.05;;;5.20;99.90;;;;;;5072037;28;20048;-74
2022/04/04 04:12:40;;;;;;;5.95;5.32;;;5.20;99.90;;;;;;5071219;28;20017;-73
2022/04/04 04:15:11;;;;;;;7.97;5.15;;;5.30;99.90;;;;;;5075169;28;20028;-74
2022/04/04 04:17:37;;;;;;;9.10;5.70;;;5.30;99.90;;;;;;5072547;28;20477;-73
2022/04/04 04:20:19;;;;;;;7.53;5.40;;;5.30;99.90;;;;;;5071354;28;20143;-74
2022/04/04 04:22:52;;;;;;;8.43;4.53;;;5.30;99.90;;;;;;5072455;28;20055;-74
2022/04/04 04:25:18;;;;;;;7.30;5.47;;;5.40;99.90;;;;;;5071933;28;20089;-73
2022/04/04 04:27:45;;;;;;;13.13;5.43;;;5.40;99.90;;;;;;5071156;28;20119;-73
2022/04/04 04:30:15;;;;;;;11.07;5.15;;;5.40;99.90;;;;;;5071627;28;20031;-73
2022/04/04 04:32:50;;;;;;;16.02;7.65;;;5.50;99.90;;;;;;5072333;28;20028;-75
2022/04/04 04:35:17;;;;;;;10.50;5.20;;;5.50;99.90;;;;;;5071025;28;20032;-74
2022/04/04 04:37:43;;;;;;;9.02;5.90;;;5.50;99.90;;;;;;5071890;28;20028;-74
2022/04/04 04:40:09;;;;;;;9.45;5.15;;;5.50;99.90;;;;;;5071557;28;20028;-73
2022/04/04 04:42:36;;;;;;;7.97;4.75;;;5.60;99.90;;;;;;5070879;28;20025;-74
2022/04/04 04:45:04;;;;;;;9.57;5.28;;;5.60;99.90;;;;;;5071866;28;20024;-74
2022/04/04 04:47:30;;;;;;;10.25;4.85;;;5.60;99.90;;;;;;5071647;28;20071;-74
2022/04/04 04:49:56;;;;;;;7.00;4.93;;;5.70;99.90;;;;;;5071018;28;20060;-73
2022/04/04 04:52:22;;;;;;;10.52;5.50;;;5.70;99.90;;;;;;5071550;28;20032;-73
2022/04/04 04:54:47;;;;;;;6.50;4.40;;;5.70;99.90;;;;;;5071689;28;20032;-74
2022/04/04 04:57:13;;;;;;;8.73;4.78;;;5.70;99.90;;;;;;5071095;28;20027;-74
2022/04/04 04:59:38;;;;;;;8.70;5.25;;;5.70;99.90;;;;;;5071854;28;20028;-74
2022/04/04 05:02:04;;;;;;;8.98;5.60;;;5.70;99.90;;;;;;5070988;28;20030;-74
2022/04/04 05:04:30;;;;;;;56.28;16.80;;;5.70;99.90;;;;;;5071504;28;20024;-74
2022/04/04 05:06:55;;;;;;;65.55;21.52;;;5.70;99.90;;;;;;5071677;28;20157;-74
2022/04/04 05:09:21;;;;;;;24.80;10.52;;;5.70;99.90;;;;;;5069387;28;20127;-74
2022/04/04 05:11:47;;;;;;;20.00;9.10;;;5.70;99.90;;;;;;5073785;28;20017;-73
2022/04/04 05:14:15;;;;;;;12.98;6.38;;;5.80;99.90;;;;;;5068951;28;20069;-74
2022/04/04 05:16:44;;;;;;;11.65;5.95;;;5.80;99.90;;;;;;5069254;28;20074;-74
2022/04/04 05:19:11;;;;;;;12.38;6.78;;;5.80;99.90;;;;;;5069198;28;20032;-74
2022/04/04 05:21:37;;;;;;;15.35;5.93;;;5.80;99.90;;;;;;5069812;28;20031;-74
2022/04/04 05:24:06;;;;;;;9.20;5.90;;;5.80;99.90;;;;;;5070871;28;20041;-74
2022/04/04 05:26:32;;;;;;;14.65;5.78;;;5.90;99.90;;;;;;5073858;28;20027;-74
2022/04/04 05:28:58;;;;;;;10.50;6.30;;;5.90;99.90;;;;;;5073421;28;20071;-74
2022/04/04 05:31:24;;;;;;;8.90;6.50;;;5.90;99.90;;;;;;5072622;28;20021;-73
2022/04/04 05:33:50;;;;;;;11.40;7.13;;;5.90;99.90;;;;;;5073621;28;20021;-73
2022/04/04 05:36:16;;;;;;;7.63;5.95;;;6.00;99.90;;;;;;5073410;28;20029;-73
2022/04/04 05:38:42;;;;;;;9.80;6.13;;;6.00;99.90;;;;;;5077715;28;20141;-74
2022/04/04 05:41:07;;;;;;;8.30;7.07;;;6.00;99.90;;;;;;5077560;28;20032;-73
2022/04/04 05:43:33;;;;;;;12.40;6.72;;;6.10;99.90;;;;;;5075835;28;20081;-75
2022/04/04 05:45:58;;;;;;;9.23;6.45;;;6.20;99.90;;;;;;5073327;28;20032;-74
2022/04/04 05:48:27;;;;;;;8.85;7.22;;;6.20;99.90;;;;;;5072847;28;20020;-73
2022/04/04 05:50:53;;;;;;;9.48;6.55;;;6.20;99.90;;;;;;5072470;28;20032;-73
2022/04/04 05:53:19;;;;;;;9.35;7.15;;;6.20;99.90;;;;;;5072553;28;20062;-74
2022/04/04 05:55:45;;;;;;;13.05;6.50;;;6.20;99.90;;;;;;5073240;28;20499;-73
2022/04/04 05:58:10;;;;;;;12.20;7.57;;;6.20;99.90;;;;;;5072317;28;20009;-73
2022/04/04 06:00:36;;;;;;;13.80;7.80;;;6.30;99.90;;;;;;5073441;28;20028;-74
2022/04/04 06:03:02;;;;;;;11.90;7.13;;;6.30;99.90;;;;;;5076269;28;20104;-74
2022/04/04 06:05:28;;;;;;;14.68;6.28;;;6.40;99.90;;;;;;5072004;28;20021;-74
2022/04/04 06:07:53;;;;;;;9.45;7.00;;;6.30;99.90;;;;;;5073234;28;20031;-73
2022/04/04 06:10:19;;;;;;;13.18;6.85;;;6.40;99.90;;;;;;5072645;28;20075;-74
2022/04/04 06:12:45;;;;;;;6.35;5.13;;;6.50;99.90;;;;;;5075892;28;20024;-73
2022/04/04 06:15:12;;;;;;;9.45;6.15;;;6.50;99.90;;;;;;5072566;28;20396;-73
2022/04/04 06:17:41;;;;;;;11.00;5.97;;;6.50;99.90;;;;;;5074318;28;20027;-72
2022/04/04 06:20:08;;;;;;;6.45;5.47;;;6.60;99.90;;;;;;5072588;28;20060;-73
2022/04/04 06:22:38;;;;;;;10.13;6.80;;;6.60;99.90;;;;;;5086288;28;20028;-73
2022/04/04 06:25:07;;;;;;;6.88;5.97;;;6.60;99.90;;;;;;5083378;28;20385;-74
2022/04/04 06:27:33;;;;;;;13.90;6.38;;;6.60;99.90;;;;;;5070214;28;20048;-73
2022/04/04 06:29:59;;;;;;;7.13;6.43;;;6.60;99.90;;;;;;5071196;28;20121;-73
2022/04/04 06:32:25;;;;;;;9.10;6.13;;;6.70;99.90;;;;;;5070691;28;20021;-74
2022/04/04 06:34:51;;;;;;;5.72;5.05;;;6.70;99.90;;;;;;5074074;28;20028;-73
2022/04/04 06:37:17;;;;;;;7.80;6.85;;;6.70;99.90;;;;;;5072049;28;20379;-73
2022/04/04 06:39:43;;;;;;;7.82;4.18;;;6.70;99.90;;;;;;5072542;28;20024;-73
2022/04/04 06:42:08;;;;;;;12.50;5.65;;;6.70;99.90;;;;;;5071362;28;20025;-73
2022/04/04 06:44:35;;;;;;;4.78;4.13;;;6.70;99.90;;;;;;5072389;28;20016;-73
2022/04/04 06:47:01;;;;;;;7.70;5.13;;;6.60;99.90;;;;;;5072566;28;20112;-74
2022/04/04 06:49:26;;;;;;;6.43;5.22;;;6.70;99.90;;;;;;5072017;28;20127;-73
2022/04/04 06:51:52;;;;;;;12.45;6.15;;;7.30;99.90;;;;;;5073349;28;20021;-73
2022/04/04 06:54:19;;;;;;;10.30;5.28;;;6.60;99.90;;;;;;5054898;28;20048;-74
2022/04/04 06:56:52;;;;;;;11.93;5.55;;;6.60;99.90;;;;;;5072790;28;20056;-73
2022/04/04 06:59:17;;;;;;;7.00;5.75;;;6.60;99.90;;;;;;5073192;28;20389;-74
2022/04/04 07:01:43;;;;;;;7.10;5.30;;;6.60;99.90;;;;;;5072201;28;20055;-74
2022/04/04 07:04:10;;;;;;;10.32;5.20;;;6.60;99.90;;;;;;5072998;28;20040;-72
2022/04/04 07:06:36;;;;;;;8.75;5.78;;;6.60;99.90;;;;;;5073357;28;20029;-72
2022/04/04 07:09:02;;;;;;;9.50;5.10;;;6.60;99.90;;;;;;5071778;28;20053;-72
2022/04/04 07:11:29;;;;;;;8.43;5.60;;;6.60;99.90;;;;;;5071694;28;20193;-73
2022/04/04 07:13:58;;;;;;;8.57;6.43;;;6.60;99.90;;;;;;5070747;28;20105;-73
2022/04/04 07:16:25;;;;;;;11.02;6.28;;;6.60;99.90;;;;;;5071181;28;20547;-73
2022/04/04 07:18:51;;;;;;;8.38;5.68;;;6.60;99.90;;;;;;5073031;28;20104;-72
2022/04/04 07:21:17;;;;;;;15.55;6.75;;;6.60;99.90;;;;;;5072648;28;20107;-72
2022/04/04 07:23:42;;;;;;;9.23;7.85;;;6.60;99.90;;;;;;5071641;28;20021;-74
2022/04/04 07:26:08;;;;;;;7.15;6.10;;;6.60;99.90;;;;;;5073059;28;20082;-73
2022/04/04 07:28:34;;;;;;;7.95;5.90;;;6.60;99.90;;;;;;5075256;28;20150;-73
2022/04/04 07:31:01;;;;;;;11.32;5.60;;;6.60;99.90;;;;;;5073320;28;20111;-74
2022/04/04 07:33:27;;;;;;;17.83;6.47;;;6.60;99.90;;;;;;5072154;28;20593;-74
2022/04/04 07:35:53;;;;;;;9.40;5.10;;;6.50;99.90;;;;;;5072014;28;20465;-74
2022/04/04 07:38:18;;;;;;;13.98;7.55;;;6.50;99.90;;;;;;5069711;28;20025;-75
2022/04/04 07:40:44;;;;;;;23.23;6.80;;;6.50;99.90;;;;;;5096610;28;20083;-74
2022/04/04 07:43:10;;;;;;;10.25;6.90;;;6.50;99.90;;;;;;5109943;28;20115;-73
2022/04/04 07:45:35;;;;;;;13.02;8.70;;;6.50;99.90;;;;;;5103055;28;20501;-74
2022/04/04 07:48:03;;;;;;;8.00;6.75;;;6.50;99.90;;;;;;5108334;28;20027;-74
2022/04/04 07:50:30;;;;;;;7.43;6.53;;;6.40;99.90;;;;;;5104187;28;20053;-73
2022/04/04 07:52:56;;;;;;;9.23;6.70;;;6.50;99.90;;;;;;5108935;28;20027;-74
2022/04/04 07:55:21;;;;;;;7.38;5.60;;;6.40;99.90;;;;;;5110128;28;20032;-72
2022/04/04 07:57:47;;;;;;;10.82;7.47;;;6.50;99.90;;;;;;5110302;28;20061;-74
2022/04/04 08:00:14;;;;;;;13.93;8.45;;;6.50;99.90;;;;;;5110797;28;20076;-74
2022/04/04 08:02:40;;;;;;;18.08;7.40;;;6.50;99.90;;;;;;5110843;28;20483;-74
2022/04/04 08:05:08;;;;;;;6.22;5.60;;;6.50;99.90;;;;;;5110490;28;20466;-74
2022/04/04 08:07:34;;;;;;;12.50;6.38;;;6.40;99.90;;;;;;5104347;28;20092;-74
2022/04/04 08:10:03;;;;;;;15.88;6.20;;;6.40;99.90;;;;;;5110487;28;20491;-75
2022/04/04 08:12:29;;;;;;;8.95;5.28;;;6.40;99.90;;;;;;5109323;28;20030;-74
2022/04/04 08:14:55;;;;;;;14.65;8.68;;;6.40;99.90;;;;;;5107357;28;20023;-74
2022/04/04 08:17:21;;;;;;;10.02;6.28;;;6.40;99.90;;;;;;5110846;28;20551;-73
2022/04/04 08:19:46;;;;;;;9.82;6.63;;;6.40;99.90;;;;;;5110109;28;20034;-75
2022/04/04 08:22:12;;;;;;;11.65;6.10;;;6.50;99.90;;;;;;5110590;28;20379;-74
2022/04/04 08:24:38;;;;;;;12.73;6.07;;;6.50;99.90;;;;;;5110503;28;20110;-73
2022/04/04 08:27:05;;;;;;;14.20;5.68;;;6.50;99.90;;;;;;5093093;28;20037;-75
2022/04/04 08:29:30;;;;;;;16.02;5.28;;;6.50;99.90;;;;;;5084040;28;20043;-74
2022/04/04 08:31:56;;;;;;;13.02;6.78;;;6.50;99.90;;;;;;5084031;28;20013;-74
2022/04/04 08:34:21;;;;;;;9.63;5.97;;;6.50;99.90;;;;;;5091135;28;20032;-74
2022/04/04 08:36:47;;;;;;;10.07;5.88;;;6.40;99.90;;;;;;5101533;28;20103;-74
2022/04/04 08:39:13;;;;;;;8.32;6.00;;;6.40;99.90;;;;;;5110185;28;20042;-75
2022/04/04 08:41:38;;;;;;;9.95;6.28;;;6.40;99.90;;;;;;5111004;28;20058;-73
2022/04/04 08:44:05;;;;;;;10.93;5.13;;;6.50;99.90;;;;;;5110301;28;20506;-73
2022/04/04 08:46:33;;;;;;;9.85;6.00;;;6.50;99.90;;;;;;5097207;28;20656;-73
2022/04/04 08:49:00;;;;;;;12.40;4.93;;;6.50;99.90;;;;;;5101073;28;20407;-74
2022/04/04 08:51:26;;;;;;;8.48;6.30;;;6.40;99.90;;;;;;5107359;28;20075;-74
2022/04/04 08:53:52;;;;;;;15.07;7.18;;;6.50;99.90;;;;;;5101051;28;20415;-74
2022/04/04 08:56:21;;;;;;;8.55;6.65;;;6.50;99.90;;;;;;5109572;28;20028;-73
2022/04/04 08:58:47;;;;;;;9.90;5.20;;;6.50;99.90;;;;;;5089249;28;20414;-74
2022/04/04 09:01:13;;;;;;;7.03;5.40;;;6.40;99.90;;;;;;5113721;28;20026;-73
2022/04/04 09:03:38;;;;;;;12.75;7.53;;;6.50;99.90;;;;;;5114184;28;20043;-74
2022/04/04 09:06:05;;;;;;;12.65;7.13;;;6.50;99.90;;;;;;5107883;28;20116;-73
2022/04/04 09:08:44;;;;;;;10.13;7.22;;;6.50;99.90;;;;;;5112936;28;20055;-73
2022/04/04 09:11:10;;;;;;;13.02;6.78;;;6.50;99.90;;;;;;5096643;28;20032;-73
2022/04/04 09:13:36;;;;;;;9.50;7.07;;;6.40;99.90;;;;;;5114785;28;20036;-74
2022/04/04 09:16:04;;;;;;;14.50;6.05;;;6.40;99.90;;;;;;5098436;28;20039;-74
2022/04/04 09:18:35;;;;;;;6.10;4.45;;;6.40;99.90;;;;;;5095544;28;20028;-74
2022/04/04 09:21:06;;;;;;;13.05;5.65;;;6.40;99.90;;;;;;5113561;28;20099;-74
2022/04/04 09:23:55;;;;;;;6.65;5.88;;;6.40;99.90;;;;;;5110012;28;20030;-74
2022/04/04 09:26:30;;;;;;;8.15;5.85;;;6.30;99.90;;;;;;5112525;28;20028;-75
2022/04/04 09:29:13;;;;;;;9.02;5.97;;;6.40;99.90;;;;;;5114425;28;20046;-73
2022/04/04 09:32:02;;;;;;;9.60;6.40;;;6.40;99.90;;;;;;5113879;28;20027;-74
2022/04/04 09:34:27;;;;;;;8.15;6.80;;;6.40;99.90;;;;;;5114885;28;20030;-74
2022/04/04 09:36:53;;;;;;;13.48;7.07;;;6.40;99.90;;;;;;5113596;28;20032;-74
2022/04/04 09:39:19;;;;;;;8.15;6.65;;;6.40;99.90;;;;;;5113444;28;20024;-73
2022/04/04 09:41:47;;;;;;;10.25;6.35;;;6.50;99.90;;;;;;5114254;28;20020;-74
2022/04/04 09:44:13;;;;;;;9.77;6.70;;;6.50;99.90;;;;;;5106729;28;20043;-73
2022/04/04 09:46:41;;;;;;;10.57;6.50;;;6.60;99.90;;;;;;5108315;28;20379;-73
2022/04/04 09:49:09;;;;;;;7.72;5.82;;;6.60;99.90;;;;;;5113215;28;20040;-74
2022/04/04 09:51:41;;;;;;;6.22;5.65;;;6.70;99.90;;;;;;5113066;28;20402;-73
2022/04/04 09:54:18;;;;;;;8.23;6.20;;;6.70;99.90;;;;;;5112373;28;20045;-73
2022/04/04 09:56:46;;;;;;;10.90;5.85;;;6.70;99.90;;;;;;5113796;28;20028;-73
2022/04/04 09:59:14;;;;;;;10.27;5.68;;;6.70;99.90;;;;;;5113009;28;20045;-74
2022/04/04 10:01:45;;;;;;;8.98;5.65;;;6.70;99.90;;;;;;5113714;28;20102;-73
2022/04/04 10:04:14;;;;;;;11.50;6.93;;;6.70;99.90;;;;;;5113386;28;20483;-74
2022/04/04 10:06:42;;;;;;;10.20;6.97;;;6.70;99.90;;;;;;5112839;28;20073;-73
2022/04/04 10:09:08;;;;;;;16.90;6.60;;;6.70;99.90;;;;;;5112248;28;20366;-74
2022/04/04 10:11:36;;;;;;;13.95;6.82;;;6.60;99.90;;;;;;5111772;28;20030;-73
2022/04/04 10:14:03;;;;;;;10.65;5.80;;;6.60;99.90;;;;;;5113753;28;20047;-74
2022/04/04 10:16:30;;;;;;;12.40;7.47;;;6.60;99.90;;;;;;5112869;28;20510;-73
2022/04/04 10:18:57;;;;;;;9.40;7.45;;;6.60;99.90;;;;;;5112573;28;20032;-74
2022/04/04 10:21:23;;;;;;;8.45;7.57;;;6.60;99.90;;;;;;5112638;28;20031;-73
2022/04/04 10:23:57;;;;;;;11.98;6.47;;;6.60;99.90;;;;;;5112874;28;20111;-73
2022/04/04 10:26:28;;;;;;;6.78;5.68;;;6.60;99.90;;;;;;5105607;28;20023;-73
2022/04/04 10:29:07;;;;;;;7.10;6.30;;;6.60;99.90;;;;;;5112841;28;20179;-73
2022/04/04 10:31:51;;;;;;;8.75;6.03;;;6.70;99.90;;;;;;5113152;28;20028;-73
2022/04/04 10:34:19;;;;;;;10.15;6.05;;;6.70;99.90;;;;;;5111701;28;20051;-73
2022/04/04 10:36:54;;;;;;;8.10;6.85;;;6.70;99.90;;;;;;5113249;28;20435;-73
2022/04/04 10:39:42;;;;;;;7.25;5.30;;;6.80;99.90;;;;;;5112105;28;20023;-73
2022/04/04 10:42:28;;;;;;;10.15;4.78;;;6.80;99.90;;;;;;5112530;28;20023;-74
2022/04/04 10:45:06;;;;;;;5.35;3.60;;;6.90;99.90;;;;;;5112794;28;20092;-74
2022/04/04 10:47:32;;;;;;;5.30;4.57;;;6.90;99.90;;;;;;5111692;28;20016;-72
2022/04/04 10:50:15;;;;;;;7.45;4.63;;;6.90;99.90;;;;;;5112728;28;20173;-71
2022/04/04 10:52:42;;;;;;;5.53;5.03;;;7.00;99.90;;;;;;5108390;28;20030;-73
2022/04/04 10:55:30;;;;;;;5.88;4.22;;;7.00;99.90;;;;;;5111625;28;20031;-73
2022/04/04 10:58:09;;;;;;;5.78;4.18;;;7.00;99.90;;;;;;5105320;28;20025;-73
2022/04/04 11:00:57;;;;;;;6.75;3.28;;;7.00;99.90;;;;;;5112450;28;20031;-73
2022/04/04 11:03:51;;;;;;;6.50;3.95;;;7.00;99.90;;;;;;5107226;28;20080;-73
2022/04/04 11:09:22;;;;;;;8.52;3.38;;;7.10;99.90;;;;;;5108659;28;20116;-72
2022/04/04 11:11:49;;;;;;;4.93;3.58;;;7.10;99.90;;;;;;5089897;28;20476;-73
2022/04/04 11:14:38;;;;;;;4.07;3.67;;;7.10;99.90;;;;;;5079559;28;20025;-72
2022/04/04 11:17:07;;;;;;;4.05;3.75;;;7.10;99.90;;;;;;5102656;28;20491;-74
2022/04/04 11:20:02;;;;;;;5.30;3.55;;;7.20;99.90;;;;;;5112012;28;20059;-73
2022/04/04 11:22:37;;;;;;;5.43;3.67;;;7.20;99.90;;;;;;5109685;28;20037;-73
2022/04/04 11:25:15;;;;;;;4.95;3.50;;;7.20;99.90;;;;;;5103186;28;20024;-73
2022/04/04 11:27:41;;;;;;;5.22;2.58;;;7.30;99.90;;;;;;5112060;28;20020;-73
2022/04/04 11:30:13;;;;;;;6.47;3.33;;;7.30;99.90;;;;;;5110701;28;20028;-73
2022/04/04 11:32:42;;;;;;;5.07;3.78;;;7.30;99.90;;;;;;5111844;28;20426;-73
2022/04/04 11:35:10;;;;;;;3.50;2.75;;;7.30;99.90;;;;;;5111763;28;20096;-74
2022/04/04 11:37:50;;;;;;;3.60;2.90;;;7.40;99.90;;;;;;5110837;28;20027;-72
2022/04/04 11:40:39;;;;;;;8.27;3.30;;;7.40;99.90;;;;;;5099296;28;20039;-72
2022/04/04 11:43:27;;;;;;;3.13;2.85;;;7.40;99.90;;;;;;5100410;28;20042;-72
2022/04/04 11:45:54;;;;;;;3.38;3.08;;;7.50;99.90;;;;;;5098652;28;20067;-72
2022/04/04 11:48:24;;;;;;;4.03;2.67;;;7.50;99.90;;;;;;5105421;28;20036;-73
2022/04/04 11:50:51;;;;;;;2.88;2.25;;;7.60;99.90;;;;;;5085997;28;20035;-73
2022/04/04 11:53:38;;;;;;;3.40;2.35;;;7.70;99.90;;;;;;5111682;28;20058;-72
2022/04/04 11:56:21;;;;;;;2.30;2.10;;;7.70;99.90;;;;;;5076455;28;20035;-73
2022/04/04 11:58:51;;;;;;;3.60;2.60;;;7.80;99.90;;;;;;5081216;28;20024;-73
2022/04/04 12:01:16;;;;;;;2.20;2.00;;;7.90;99.90;;;;;;5081554;28;20028;-73
2022/04/04 12:03:49;;;;;;;1.92;1.75;;;7.90;99.90;;;;;;5092547;28;20429;-72
2022/04/04 12:06:15;;;;;;;5.45;2.05;;;7.90;99.90;;;;;;5086859;28;20063;-71
2022/04/04 12:08:44;;;;;;;2.75;1.83;;;7.90;99.90;;;;;;5079194;28;20059;-72
2022/04/04 12:11:10;;;;;;;2.65;1.98;;;7.90;99.90;;;;;;5077232;28;20159;-73
2022/04/04 12:13:49;;;;;;;2.55;2.25;;;7.90;99.90;;;;;;5076225;28;20464;-72
2022/04/04 12:16:16;;;;;;;3.92;2.03;;;7.90;99.90;;;;;;5082244;28;20185;-73
2022/04/04 12:18:42;;;;;;;4.82;2.40;;;7.90;99.90;;;;;;5078527;28;20519;-74
2022/04/04 12:21:08;;;;;;;2.05;1.50;;;8.00;99.90;;;;;;5082086;28;20025;-73
2022/04/04 12:26:23;;;;;;;2.80;1.20;;;8.00;99.90;;;;;;5077407;28;20039;-73
2022/04/04 12:28:48;;;;;;;2.95;1.20;;;8.00;99.90;;;;;;5084651;28;20052;-73
2022/04/04 12:31:19;;;;;;;2.58;1.17;;;8.10;99.90;;;;;;5080206;28;20487;-71
2022/04/04 12:33:51;;;;;;;1.70;1.08;;;8.10;99.90;;;;;;5077419;28;20024;-72
2022/04/04 12:36:27;;;;;;;2.70;0.90;;;8.10;99.90;;;;;;5076923;28;20031;-73
2022/04/04 12:38:58;;;;;;;7.43;1.67;;;8.10;99.90;;;;;;5086723;28;20068;-73
2022/04/04 12:41:23;;;;;;;2.05;0.90;;;8.10;99.90;;;;;;5084027;28;20357;-73
2022/04/04 12:44:03;;;;;;;3.63;0.93;;;8.20;99.90;;;;;;5096460;28;20088;-73
2022/04/04 12:46:34;;;;;;;1.70;1.10;;;8.20;99.90;;;;;;5086646;28;20025;-72
2022/04/04 12:49:11;;;;;;;4.72;1.05;;;8.20;99.90;;;;;;5089073;28;20267;-73
2022/04/04 12:51:36;;;;;;;3.75;1.20;;;8.20;99.90;;;;;;5084306;28;20468;-73
2022/04/04 12:54:02;;;;;;;1.10;0.75;;;8.20;99.90;;;;;;5086234;28;20027;-73
2022/04/04 12:56:31;;;;;;;1.42;1.33;;;8.20;99.90;;;;;;5087703;28;20027;-73
2022/04/04 12:59:12;;;;;;;1.30;0.77;;;8.30;99.90;;;;;;5084886;28;20020;-73
2022/04/04 13:01:38;;;;;;;4.60;1.10;;;8.30;99.90;;;;;;5085575;28;20094;-73
2022/04/04 13:04:21;;;;;;;1.13;0.70;;;8.30;99.90;;;;;;5088021;28;20045;-72